sensor_id;sensor_type;location;lat;lon;timestamp;pressure;altitude;pressure_sealevel;temperature;humidity
65659;BME280;60181;53.258;6.932;2022-12-18T00:00:40;102948.56;;;12.76;60.90
65659;BME280;60181;53.258;6.932;2022-12-18T00:05:05;102949.40;;;12.75;60.90
65659;BME280;60181;53.258;6.932;2022-12-18T00:09:33;102951.49;;;12.74;60.91
65659;BME280;60181;53.258;6.932;2022-12-18T00:14:01;102951.92;;;12.73;60.95
65659;BME280;60181;53.258;6.932;2022-12-18T00:18:29;102952.84;;;12.72;60.92
65659;BME280;60181;53.258;6.932;2022-12-18T00:22:57;102954.44;;;12.71;60.94
65659;BME280;60181;53.258;6.932;2022-12-18T00:27:25;102955.62;;;12.70;61.06
65659;BME280;60181;53.258;6.932;2022-12-18T00:32:01;102956.49;;;12.70;61.11
65659;BME280;60181;53.258;6.932;2022-12-18T00:36:25;102955.13;;;12.68;61.30
65659;BME280;60181;53.258;6.932;2022-12-18T00:40:49;102955.98;;;12.68;61.40
65659;BME280;60181;53.258;6.932;2022-12-18T00:45:17;102955.97;;;12.67;61.49
65659;BME280;60181;53.258;6.932;2022-12-18T00:49:45;102953.61;;;12.66;61.61
65659;BME280;60181;53.258;6.932;2022-12-18T00:54:13;102954.21;;;12.65;61.68
65659;BME280;60181;53.258;6.932;2022-12-18T00:58:41;102954.48;;;12.64;61.73
65659;BME280;60181;53.258;6.932;2022-12-18T01:03:09;102953.52;;;12.63;61.76
65659;BME280;60181;53.258;6.932;2022-12-18T01:07:37;102952.22;;;12.62;61.77
65659;BME280;60181;53.258;6.932;2022-12-18T01:12:14;102952.77;;;12.60;61.74
65659;BME280;60181;53.258;6.932;2022-12-18T01:16:33;102954.69;;;12.59;61.82
65659;BME280;60181;53.258;6.932;2022-12-18T01:21:05;102957.65;;;12.58;61.75
65659;BME280;60181;53.258;6.932;2022-12-18T01:25:29;102962.12;;;12.56;61.75
65659;BME280;60181;53.258;6.932;2022-12-18T01:29:57;102966.32;;;12.57;62.21
65659;BME280;60181;53.258;6.932;2022-12-18T01:34:25;102970.65;;;12.58;62.08
65659;BME280;60181;53.258;6.932;2022-12-18T01:38:53;102974.76;;;12.57;62.11
65659;BME280;60181;53.258;6.932;2022-12-18T01:43:21;102978.23;;;12.56;62.13
65659;BME280;60181;53.258;6.932;2022-12-18T01:47:56;102981.54;;;12.56;62.19
65659;BME280;60181;53.258;6.932;2022-12-18T01:52:17;102983.75;;;12.55;62.15
65659;BME280;60181;53.258;6.932;2022-12-18T01:56:45;102982.75;;;12.53;62.17
65659;BME280;60181;53.258;6.932;2022-12-18T02:01:13;102983.02;;;12.52;62.22
65659;BME280;60181;53.258;6.932;2022-12-18T02:05:44;102983.33;;;12.51;62.16
65659;BME280;60181;53.258;6.932;2022-12-18T02:14:49;102985.69;;;12.50;62.25
65659;BME280;60181;53.258;6.932;2022-12-18T02:19:06;102989.61;;;12.49;62.37
65659;BME280;60181;53.258;6.932;2022-12-18T02:28:01;102995.97;;;12.48;62.76
65659;BME280;60181;53.258;6.932;2022-12-18T02:32:30;102995.86;;;12.47;62.94
65659;BME280;60181;53.258;6.932;2022-12-18T02:36:57;102995.72;;;12.45;63.01
65659;BME280;60181;53.258;6.932;2022-12-18T02:41:42;102995.81;;;12.44;63.14
65659;BME280;60181;53.258;6.932;2022-12-18T02:45:56;102993.97;;;12.42;63.15
65659;BME280;60181;53.258;6.932;2022-12-18T02:50:31;102993.74;;;12.41;63.11
65659;BME280;60181;53.258;6.932;2022-12-18T02:54:56;102991.82;;;12.39;63.04
65659;BME280;60181;53.258;6.932;2022-12-18T02:59:18;102988.38;;;12.38;63.02
65659;BME280;60181;53.258;6.932;2022-12-18T03:03:47;102986.67;;;12.36;63.03
65659;BME280;60181;53.258;6.932;2022-12-18T03:08:14;102986.07;;;12.35;63.01
65659;BME280;60181;53.258;6.932;2022-12-18T03:12:45;102985.17;;;12.33;62.93
65659;BME280;60181;53.258;6.932;2022-12-18T03:17:09;102986.01;;;12.32;62.93
65659;BME280;60181;53.258;6.932;2022-12-18T03:21:38;102987.27;;;12.31;62.90
65659;BME280;60181;53.258;6.932;2022-12-18T03:26:06;102989.25;;;12.29;62.88
65659;BME280;60181;53.258;6.932;2022-12-18T03:30:32;102990.38;;;12.28;62.84
65659;BME280;60181;53.258;6.932;2022-12-18T03:35:02;102991.87;;;12.26;62.81
65659;BME280;60181;53.258;6.932;2022-12-18T03:39:28;102991.47;;;12.25;62.79
65659;BME280;60181;53.258;6.932;2022-12-18T03:44:11;102989.22;;;12.23;62.75
65659;BME280;60181;53.258;6.932;2022-12-18T03:52:57;102982.31;;;12.20;62.64
65659;BME280;60181;53.258;6.932;2022-12-18T03:57:21;102979.37;;;12.19;62.65
65659;BME280;60181;53.258;6.932;2022-12-18T04:01:49;102978.39;;;12.18;62.66
65659;BME280;60181;53.258;6.932;2022-12-18T04:06:17;102976.11;;;12.16;62.73
65659;BME280;60181;53.258;6.932;2022-12-18T04:10:44;102972.84;;;12.15;62.78
65659;BME280;60181;53.258;6.932;2022-12-18T04:15:12;102971.80;;;12.14;62.86
65659;BME280;60181;53.258;6.932;2022-12-18T04:19:40;102970.00;;;12.13;62.88
65659;BME280;60181;53.258;6.932;2022-12-18T04:24:08;102969.03;;;12.11;62.95
65659;BME280;60181;53.258;6.932;2022-12-18T04:28:36;102971.19;;;12.11;62.90
65659;BME280;60181;53.258;6.932;2022-12-18T04:33:11;102972.52;;;12.09;62.97
65659;BME280;60181;53.258;6.932;2022-12-18T04:37:32;102974.44;;;12.08;62.87
65659;BME280;60181;53.258;6.932;2022-12-18T04:42:00;102976.34;;;12.07;62.91
65659;BME280;60181;53.258;6.932;2022-12-18T04:46:28;102978.50;;;12.06;62.87
65659;BME280;60181;53.258;6.932;2022-12-18T04:50:56;102979.87;;;12.04;62.87
65659;BME280;60181;53.258;6.932;2022-12-18T04:55:24;102979.90;;;12.03;62.75
65659;BME280;60181;53.258;6.932;2022-12-18T04:59:52;102977.51;;;12.02;62.65
65659;BME280;60181;53.258;6.932;2022-12-18T05:04:20;102977.03;;;12.00;62.65
65659;BME280;60181;53.258;6.932;2022-12-18T05:08:48;102977.10;;;11.99;62.63
65659;BME280;60181;53.258;6.932;2022-12-18T05:13:16;102976.89;;;11.97;62.58
65659;BME280;60181;53.258;6.932;2022-12-18T05:17:47;102979.17;;;11.96;62.53
65659;BME280;60181;53.258;6.932;2022-12-18T05:22:12;102983.30;;;11.94;62.46
65659;BME280;60181;53.258;6.932;2022-12-18T05:26:43;102987.49;;;11.93;62.45
65659;BME280;60181;53.258;6.932;2022-12-18T05:31:08;102989.27;;;11.91;62.37
65659;BME280;60181;53.258;6.932;2022-12-18T05:35:36;102990.73;;;11.89;62.28
65659;BME280;60181;53.258;6.932;2022-12-18T05:40:05;102992.68;;;11.87;62.18
65659;BME280;60181;53.258;6.932;2022-12-18T05:44:32;102994.82;;;11.86;62.17
65659;BME280;60181;53.258;6.932;2022-12-18T05:49:00;102996.15;;;11.85;62.04
65659;BME280;60181;53.258;6.932;2022-12-18T05:53:28;102996.61;;;11.83;62.05
65659;BME280;60181;53.258;6.932;2022-12-18T05:57:56;102998.84;;;11.81;61.96
65659;BME280;60181;53.258;6.932;2022-12-18T06:02:24;103000.70;;;11.80;61.95
65659;BME280;60181;53.258;6.932;2022-12-18T06:06:52;103003.71;;;11.79;61.96
65659;BME280;60181;53.258;6.932;2022-12-18T06:11:23;103006.43;;;11.79;61.88
65659;BME280;60181;53.258;6.932;2022-12-18T06:15:48;103010.28;;;11.81;62.26
65659;BME280;60181;53.258;6.932;2022-12-18T06:20:16;103015.52;;;11.82;62.30
65659;BME280;60181;53.258;6.932;2022-12-18T06:24:44;103021.26;;;11.82;62.33
65659;BME280;60181;53.258;6.932;2022-12-18T06:29:12;103027.59;;;11.82;62.48
65659;BME280;60181;53.258;6.932;2022-12-18T06:33:40;103033.25;;;11.82;62.51
65659;BME280;60181;53.258;6.932;2022-12-18T06:38:08;103037.38;;;11.81;62.37
65659;BME280;60181;53.258;6.932;2022-12-18T06:42:36;103039.34;;;11.80;62.37
65659;BME280;60181;53.258;6.932;2022-12-18T06:47:04;103037.51;;;11.82;62.05
65659;BME280;60181;53.258;6.932;2022-12-18T06:51:32;103033.74;;;11.83;61.85
65659;BME280;60181;53.258;6.932;2022-12-18T06:56:04;103028.50;;;11.82;61.91
65659;BME280;60181;53.258;6.932;2022-12-18T07:00:28;103023.50;;;11.81;61.91
65659;BME280;60181;53.258;6.932;2022-12-18T07:04:56;103019.18;;;11.78;61.88
65659;BME280;60181;53.258;6.932;2022-12-18T07:09:24;103015.84;;;11.76;61.79
65659;BME280;60181;53.258;6.932;2022-12-18T07:13:52;103012.68;;;11.74;61.77
65659;BME280;60181;53.258;6.932;2022-12-18T07:18:20;103009.94;;;11.72;61.71
65659;BME280;60181;53.258;6.932;2022-12-18T07:22:48;103007.47;;;11.70;61.65
65659;BME280;60181;53.258;6.932;2022-12-18T07:27:16;103005.19;;;11.69;61.58
65659;BME280;60181;53.258;6.932;2022-12-18T07:31:44;103000.48;;;11.67;61.53
65659;BME280;60181;53.258;6.932;2022-12-18T07:36:12;102995.24;;;11.66;61.49
65659;BME280;60181;53.258;6.932;2022-12-18T07:40:40;102991.56;;;11.65;61.44
65659;BME280;60181;53.258;6.932;2022-12-18T07:45:08;102988.31;;;11.64;61.43
65659;BME280;60181;53.258;6.932;2022-12-18T07:49:39;102987.55;;;11.64;61.35
65659;BME280;60181;53.258;6.932;2022-12-18T07:54:07;102988.06;;;11.63;61.37
65659;BME280;60181;53.258;6.932;2022-12-18T07:58:32;102989.03;;;11.62;61.27
65659;BME280;60181;53.258;6.932;2022-12-18T08:03:00;102988.87;;;11.62;61.33
65659;BME280;60181;53.258;6.932;2022-12-18T08:07:28;102990.59;;;11.80;59.66
65659;BME280;60181;53.258;6.932;2022-12-18T08:11:56;102992.42;;;11.83;60.45
65659;BME280;60181;53.258;6.932;2022-12-18T08:16:24;102992.47;;;11.81;60.79
65659;BME280;60181;53.258;6.932;2022-12-18T08:20:52;102994.29;;;11.79;60.86
65659;BME280;60181;53.258;6.932;2022-12-18T08:25:20;102995.72;;;11.77;60.93
65659;BME280;60181;53.258;6.932;2022-12-18T08:29:48;102996.80;;;11.76;61.00
65659;BME280;60181;53.258;6.932;2022-12-18T08:34:16;102997.67;;;11.74;61.00
65659;BME280;60181;53.258;6.932;2022-12-18T08:38:44;102997.45;;;11.73;60.98
65659;BME280;60181;53.258;6.932;2022-12-18T08:43:12;102998.41;;;11.73;60.98
65659;BME280;60181;53.258;6.932;2022-12-18T08:47:40;102995.10;;;11.72;60.98
65659;BME280;60181;53.258;6.932;2022-12-18T08:52:08;102993.35;;;11.72;60.98
65659;BME280;60181;53.258;6.932;2022-12-18T08:56:36;102994.67;;;11.72;60.99
65659;BME280;60181;53.258;6.932;2022-12-18T09:01:05;102995.24;;;11.72;61.01
65659;BME280;60181;53.258;6.932;2022-12-18T09:05:32;102996.04;;;11.72;61.03
65659;BME280;60181;53.258;6.932;2022-12-18T09:10:00;102997.41;;;11.72;60.97
65659;BME280;60181;53.258;6.932;2022-12-18T09:14:28;102999.16;;;11.73;60.97
65659;BME280;60181;53.258;6.932;2022-12-18T09:18:56;103002.88;;;11.75;60.91
65659;BME280;60181;53.258;6.932;2022-12-18T09:23:24;103007.71;;;11.76;60.92
65659;BME280;60181;53.258;6.932;2022-12-18T09:27:52;103010.17;;;11.77;60.89
65659;BME280;60181;53.258;6.932;2022-12-18T09:32:20;103011.04;;;11.79;60.90
65659;BME280;60181;53.258;6.932;2022-12-18T09:36:48;103012.99;;;11.81;60.96
65659;BME280;60181;53.258;6.932;2022-12-18T09:45:45;103010.00;;;11.83;60.93
65659;BME280;60181;53.258;6.932;2022-12-18T09:50:26;103005.31;;;11.84;61.11
65659;BME280;60181;53.258;6.932;2022-12-18T09:54:40;102998.16;;;12.14;57.61
65659;BME280;60181;53.258;6.932;2022-12-18T09:59:14;102994.32;;;12.30;59.37
65659;BME280;60181;53.258;6.932;2022-12-18T10:03:36;102991.80;;;12.29;60.86
65659;BME280;60181;53.258;6.932;2022-12-18T10:12:51;102985.18;;;12.18;61.49
65659;BME280;60181;53.258;6.932;2022-12-18T10:17:07;102980.86;;;12.13;61.54
65659;BME280;60181;53.258;6.932;2022-12-18T10:21:31;102978.00;;;12.10;61.39
65659;BME280;60181;53.258;6.932;2022-12-18T10:26:00;102974.78;;;12.09;61.33
65659;BME280;60181;53.258;6.932;2022-12-18T10:30:24;102972.47;;;12.08;61.32
65659;BME280;60181;53.258;6.932;2022-12-18T10:34:55;102971.56;;;12.08;61.29
65659;BME280;60181;53.258;6.932;2022-12-18T10:39:22;102967.93;;;12.08;61.33
65659;BME280;60181;53.258;6.932;2022-12-18T10:43:48;102964.99;;;12.08;61.33
65659;BME280;60181;53.258;6.932;2022-12-18T10:48:19;102962.68;;;12.08;61.31
65659;BME280;60181;53.258;6.932;2022-12-18T10:52:44;102958.45;;;12.08;61.39
65659;BME280;60181;53.258;6.932;2022-12-18T10:57:15;102953.14;;;12.07;61.46
65659;BME280;60181;53.258;6.932;2022-12-18T11:06:14;102938.96;;;12.04;61.55
65659;BME280;60181;53.258;6.932;2022-12-18T11:10:36;102931.02;;;12.03;61.53
65659;BME280;60181;53.258;6.932;2022-12-18T11:15:04;102922.90;;;12.02;61.56
65659;BME280;60181;53.258;6.932;2022-12-18T11:19:35;102915.75;;;12.02;61.52
65659;BME280;60181;53.258;6.932;2022-12-18T11:24:00;102906.70;;;12.02;61.51
65659;BME280;60181;53.258;6.932;2022-12-18T11:33:09;102895.40;;;12.01;61.45
65659;BME280;60181;53.258;6.932;2022-12-18T11:37:24;102887.67;;;12.00;61.48
65659;BME280;60181;53.258;6.932;2022-12-18T11:41:53;102880.40;;;12.00;61.45
65659;BME280;60181;53.258;6.932;2022-12-18T11:46:23;102878.59;;;12.00;61.47
65659;BME280;60181;53.258;6.932;2022-12-18T11:50:51;102879.81;;;11.99;61.48
65659;BME280;60181;53.258;6.932;2022-12-18T11:55:19;102880.07;;;12.00;61.42
65659;BME280;60181;53.258;6.932;2022-12-18T12:00:00;102878.17;;;12.00;61.46
65659;BME280;60181;53.258;6.932;2022-12-18T12:08:49;102865.94;;;12.00;61.46
65659;BME280;60181;53.258;6.932;2022-12-18T12:17:38;102851.32;;;12.00;61.50
65659;BME280;60181;53.258;6.932;2022-12-18T12:22:09;102843.19;;;12.00;61.49
65659;BME280;60181;53.258;6.932;2022-12-18T12:26:53;102834.23;;;12.00;61.48
65659;BME280;60181;53.258;6.932;2022-12-18T12:31:03;102825.04;;;12.00;61.48
65659;BME280;60181;53.258;6.932;2022-12-18T12:39:56;102808.86;;;12.00;61.53
65659;BME280;60181;53.258;6.932;2022-12-18T12:44:25;102800.32;;;12.00;61.51
65659;BME280;60181;53.258;6.932;2022-12-18T12:49:01;102791.24;;;12.00;61.54
65659;BME280;60181;53.258;6.932;2022-12-18T12:53:22;102782.69;;;12.00;61.46
65659;BME280;60181;53.258;6.932;2022-12-18T13:02:35;102767.11;;;12.01;61.50
65659;BME280;60181;53.258;6.932;2022-12-18T13:07:00;102760.58;;;12.01;61.46
65659;BME280;60181;53.258;6.932;2022-12-18T13:11:15;102753.61;;;12.02;61.53
65659;BME280;60181;53.258;6.932;2022-12-18T13:15:46;102745.89;;;12.02;61.51
65659;BME280;60181;53.258;6.932;2022-12-18T13:20:09;102737.17;;;12.02;61.55
65659;BME280;60181;53.258;6.932;2022-12-18T13:24:36;102728.23;;;12.02;61.56
65659;BME280;60181;53.258;6.932;2022-12-18T13:29:04;102720.18;;;12.02;61.53
65659;BME280;60181;53.258;6.932;2022-12-18T13:33:39;102714.84;;;12.02;61.53
65659;BME280;60181;53.258;6.932;2022-12-18T13:38:00;102709.31;;;12.03;61.51
65659;BME280;60181;53.258;6.932;2022-12-18T13:42:31;102700.60;;;12.03;61.52
65659;BME280;60181;53.258;6.932;2022-12-18T13:46:56;102691.48;;;12.03;61.53
65659;BME280;60181;53.258;6.932;2022-12-18T13:51:24;102685.67;;;12.03;61.59
65659;BME280;60181;53.258;6.932;2022-12-18T13:55:52;102680.91;;;12.03;61.55
65659;BME280;60181;53.258;6.932;2022-12-18T14:00:26;102677.03;;;12.03;61.60
65659;BME280;60181;53.258;6.932;2022-12-18T14:04:48;102675.79;;;12.03;61.62
65659;BME280;60181;53.258;6.932;2022-12-18T14:09:16;102671.73;;;12.02;61.60
65659;BME280;60181;53.258;6.932;2022-12-18T14:13:44;102668.20;;;12.02;61.65
65659;BME280;60181;53.258;6.932;2022-12-18T14:22:40;102654.17;;;12.01;61.67
65659;BME280;60181;53.258;6.932;2022-12-18T14:27:21;102647.75;;;12.01;61.65
65659;BME280;60181;53.258;6.932;2022-12-18T14:31:36;102644.71;;;12.00;61.59
65659;BME280;60181;53.258;6.932;2022-12-18T14:36:04;102642.13;;;12.00;61.71
65659;BME280;60181;53.258;6.932;2022-12-18T14:40:31;102638.67;;;11.99;61.69
65659;BME280;60181;53.258;6.932;2022-12-18T14:49:31;102629.54;;;11.99;61.69
65659;BME280;60181;53.258;6.932;2022-12-18T14:53:56;102623.10;;;11.99;61.75
65659;BME280;60181;53.258;6.932;2022-12-18T14:58:23;102617.00;;;11.98;61.70
65659;BME280;60181;53.258;6.932;2022-12-18T15:02:53;102612.40;;;11.98;61.70
65659;BME280;60181;53.258;6.932;2022-12-18T15:07:20;102609.00;;;11.98;61.71
65659;BME280;60181;53.258;6.932;2022-12-18T15:11:48;102605.26;;;11.98;61.71
65659;BME280;60181;53.258;6.932;2022-12-18T15:16:15;102602.97;;;11.98;61.70
65659;BME280;60181;53.258;6.932;2022-12-18T15:20:45;102598.61;;;11.97;61.70
65659;BME280;60181;53.258;6.932;2022-12-18T15:25:32;102597.80;;;11.97;61.69
65659;BME280;60181;53.258;6.932;2022-12-18T15:29:39;102597.36;;;12.00;61.19
65659;BME280;60181;53.258;6.932;2022-12-18T15:34:12;102593.68;;;12.03;61.24
65659;BME280;60181;53.258;6.932;2022-12-18T15:38:35;102587.65;;;12.04;61.33
65659;BME280;60181;53.258;6.932;2022-12-18T15:43:04;102581.93;;;12.05;61.43
65659;BME280;60181;53.258;6.932;2022-12-18T15:47:31;102574.79;;;12.05;61.46
65659;BME280;60181;53.258;6.932;2022-12-18T15:51:59;102568.07;;;12.05;61.49
65659;BME280;60181;53.258;6.932;2022-12-18T15:56:27;102561.10;;;12.05;61.44
65659;BME280;60181;53.258;6.932;2022-12-18T16:00:56;102553.04;;;12.05;61.49
65659;BME280;60181;53.258;6.932;2022-12-18T16:05:24;102542.43;;;12.05;61.51
65659;BME280;60181;53.258;6.932;2022-12-18T16:09:51;102527.73;;;12.05;61.49
65659;BME280;60181;53.258;6.932;2022-12-18T16:14:21;102514.47;;;12.04;61.53
65659;BME280;60181;53.258;6.932;2022-12-18T16:18:47;102501.16;;;12.04;61.55
65659;BME280;60181;53.258;6.932;2022-12-18T16:23:15;102487.81;;;12.03;61.54
65659;BME280;60181;53.258;6.932;2022-12-18T16:27:43;102476.97;;;12.03;61.49
65659;BME280;60181;53.258;6.932;2022-12-18T16:32:13;102465.12;;;12.03;61.46
65659;BME280;60181;53.258;6.932;2022-12-18T16:36:39;102456.01;;;12.03;61.53
65659;BME280;60181;53.258;6.932;2022-12-18T16:41:19;102448.50;;;12.02;61.47
65659;BME280;60181;53.258;6.932;2022-12-18T16:45:35;102439.79;;;12.02;61.45
65659;BME280;60181;53.258;6.932;2022-12-18T16:50:04;102431.90;;;12.02;61.49
65659;BME280;60181;53.258;6.932;2022-12-18T16:54:31;102427.54;;;12.02;61.53
65659;BME280;60181;53.258;6.932;2022-12-18T16:59:00;102424.33;;;12.01;61.52
65659;BME280;60181;53.258;6.932;2022-12-18T17:03:27;102421.00;;;12.01;61.55
65659;BME280;60181;53.258;6.932;2022-12-18T17:07:55;102419.35;;;12.00;61.48
65659;BME280;60181;53.258;6.932;2022-12-18T17:12:23;102416.94;;;12.00;61.48
65659;BME280;60181;53.258;6.932;2022-12-18T17:16:52;102410.19;;;11.99;61.49
65659;BME280;60181;53.258;6.932;2022-12-18T17:21:19;102401.61;;;11.99;61.45
65659;BME280;60181;53.258;6.932;2022-12-18T17:25:47;102393.14;;;11.99;61.49
65659;BME280;60181;53.258;6.932;2022-12-18T17:30:15;102387.05;;;11.98;61.44
65659;BME280;60181;53.258;6.932;2022-12-18T17:34:43;102383.15;;;11.98;61.46
65659;BME280;60181;53.258;6.932;2022-12-18T17:39:14;102380.74;;;11.98;61.51
65659;BME280;60181;53.258;6.932;2022-12-18T17:43:39;102377.62;;;11.98;61.40
65659;BME280;60181;53.258;6.932;2022-12-18T17:48:07;102375.98;;;11.98;61.41
65659;BME280;60181;53.258;6.932;2022-12-18T17:52:35;102376.64;;;11.98;61.40
65659;BME280;60181;53.258;6.932;2022-12-18T17:57:04;102372.61;;;11.97;61.47
65659;BME280;60181;53.258;6.932;2022-12-18T18:01:31;102368.26;;;11.98;61.42
65659;BME280;60181;53.258;6.932;2022-12-18T18:06:00;102364.26;;;11.98;61.33
65659;BME280;60181;53.258;6.932;2022-12-18T18:10:27;102358.36;;;11.98;61.42
65659;BME280;60181;53.258;6.932;2022-12-18T18:14:55;102352.23;;;11.98;61.39
65659;BME280;60181;53.258;6.932;2022-12-18T18:19:23;102346.25;;;11.98;61.35
65659;BME280;60181;53.258;6.932;2022-12-18T18:23:51;102339.76;;;11.99;61.37
65659;BME280;60181;53.258;6.932;2022-12-18T18:28:19;102333.28;;;11.99;61.38
65659;BME280;60181;53.258;6.932;2022-12-18T18:32:47;102328.06;;;11.99;61.28
65659;BME280;60181;53.258;6.932;2022-12-18T18:37:15;102321.75;;;12.00;61.37
65659;BME280;60181;53.258;6.932;2022-12-18T18:41:44;102317.72;;;12.00;61.37
65659;BME280;60181;53.258;6.932;2022-12-18T18:46:12;102315.14;;;12.01;61.35
65659;BME280;60181;53.258;6.932;2022-12-18T18:50:39;102314.82;;;12.01;61.34
65659;BME280;60181;53.258;6.932;2022-12-18T18:55:07;102314.37;;;12.02;61.34
65659;BME280;60181;53.258;6.932;2022-12-18T18:59:35;102311.83;;;12.02;61.38
65659;BME280;60181;53.258;6.932;2022-12-18T19:04:03;102309.12;;;12.02;61.41
65659;BME280;60181;53.258;6.932;2022-12-18T19:08:32;102305.38;;;12.03;61.39
65659;BME280;60181;53.258;6.932;2022-12-18T19:12:59;102301.93;;;12.03;61.41
65659;BME280;60181;53.258;6.932;2022-12-18T19:17:27;102299.19;;;12.04;61.41
65659;BME280;60181;53.258;6.932;2022-12-18T19:21:55;102297.30;;;12.04;61.40
65659;BME280;60181;53.258;6.932;2022-12-18T19:26:23;102295.59;;;12.04;61.37
65659;BME280;60181;53.258;6.932;2022-12-18T19:30:51;102294.64;;;12.05;61.33
65659;BME280;60181;53.258;6.932;2022-12-18T19:35:19;102293.17;;;12.05;61.41
65659;BME280;60181;53.258;6.932;2022-12-18T19:39:47;102290.88;;;12.06;61.29
65659;BME280;60181;53.258;6.932;2022-12-18T19:44:15;102287.71;;;12.06;61.38
65659;BME280;60181;53.258;6.932;2022-12-18T19:48:43;102286.57;;;12.06;61.42
65659;BME280;60181;53.258;6.932;2022-12-18T19:53:11;102284.03;;;12.07;61.41
65659;BME280;60181;53.258;6.932;2022-12-18T19:57:39;102284.73;;;12.07;61.39
65659;BME280;60181;53.258;6.932;2022-12-18T20:02:10;102285.06;;;12.08;61.44
65659;BME280;60181;53.258;6.932;2022-12-18T20:06:45;102283.79;;;12.08;61.38
65659;BME280;60181;53.258;6.932;2022-12-18T20:11:03;102278.38;;;12.09;61.38
65659;BME280;60181;53.258;6.932;2022-12-18T20:15:31;102271.73;;;12.09;61.42
65659;BME280;60181;53.258;6.932;2022-12-18T20:19:59;102265.11;;;12.09;61.35
65659;BME280;60181;53.258;6.932;2022-12-18T20:24:27;102260.61;;;12.10;61.38
65659;BME280;60181;53.258;6.932;2022-12-18T20:28:55;102255.80;;;12.10;61.38
65659;BME280;60181;53.258;6.932;2022-12-18T20:33:23;102248.82;;;12.11;61.36
65659;BME280;60181;53.258;6.932;2022-12-18T20:37:51;102243.91;;;12.11;61.41
65659;BME280;60181;53.258;6.932;2022-12-18T20:42:19;102240.66;;;12.12;61.41
65659;BME280;60181;53.258;6.932;2022-12-18T20:46:47;102236.30;;;12.12;61.33
65659;BME280;60181;53.258;6.932;2022-12-18T20:51:16;102233.22;;;12.12;61.29
65659;BME280;60181;53.258;6.932;2022-12-18T20:55:43;102229.69;;;12.13;61.40
65659;BME280;60181;53.258;6.932;2022-12-18T21:00:11;102225.26;;;12.13;61.33
65659;BME280;60181;53.258;6.932;2022-12-18T21:04:39;102221.73;;;12.13;61.32
65659;BME280;60181;53.258;6.932;2022-12-18T21:09:07;102219.11;;;12.13;61.30
65659;BME280;60181;53.258;6.932;2022-12-18T21:13:35;102217.10;;;12.14;61.34
65659;BME280;60181;53.258;6.932;2022-12-18T21:18:03;102215.37;;;12.14;61.30
65659;BME280;60181;53.258;6.932;2022-12-18T21:22:31;102213.48;;;12.14;61.27
65659;BME280;60181;53.258;6.932;2022-12-18T21:26:59;102212.09;;;12.14;61.32
65659;BME280;60181;53.258;6.932;2022-12-18T21:31:28;102211.06;;;12.15;61.29
65659;BME280;60181;53.258;6.932;2022-12-18T21:35:55;102209.25;;;12.15;61.27
65659;BME280;60181;53.258;6.932;2022-12-18T21:40:23;102205.31;;;12.15;61.28
65659;BME280;60181;53.258;6.932;2022-12-18T21:44:51;102199.73;;;12.15;61.31
65659;BME280;60181;53.258;6.932;2022-12-18T21:49:19;102193.81;;;12.15;61.25
65659;BME280;60181;53.258;6.932;2022-12-18T21:53:47;102189.11;;;12.17;57.79
65659;BME280;60181;53.258;6.932;2022-12-18T21:58:15;102182.44;;;12.08;56.38
65659;BME280;60181;53.258;6.932;2022-12-18T22:02:43;102176.64;;;12.00;57.90
65659;BME280;60181;53.258;6.932;2022-12-18T22:07:11;102171.17;;;11.92;54.65
65659;BME280;60181;53.258;6.932;2022-12-18T22:11:39;102165.08;;;11.84;54.75
65659;BME280;60181;53.258;6.932;2022-12-18T22:16:07;102160.05;;;11.76;54.23
65659;BME280;60181;53.258;6.932;2022-12-18T22:20:35;102155.05;;;11.71;53.86
65659;BME280;60181;53.258;6.932;2022-12-18T22:25:03;102151.26;;;11.65;53.55
65659;BME280;60181;53.258;6.932;2022-12-18T22:29:31;102147.06;;;11.59;53.49
65659;BME280;60181;53.258;6.932;2022-12-18T22:33:59;102143.21;;;11.54;53.37
65659;BME280;60181;53.258;6.932;2022-12-18T22:38:27;102137.70;;;11.52;53.54
65659;BME280;60181;53.258;6.932;2022-12-18T22:42:55;102133.69;;;11.54;52.59
65659;BME280;60181;53.258;6.932;2022-12-18T22:47:23;102128.50;;;11.51;52.28
65659;BME280;60181;53.258;6.932;2022-12-18T22:51:51;102123.95;;;11.48;52.10
65659;BME280;60181;53.258;6.932;2022-12-18T22:56:19;102118.87;;;11.43;51.96
65659;BME280;60181;53.258;6.932;2022-12-18T23:00:47;102114.15;;;11.39;51.64
65659;BME280;60181;53.258;6.932;2022-12-18T23:05:15;102111.10;;;11.35;51.75
65659;BME280;60181;53.258;6.932;2022-12-18T23:09:43;102107.73;;;11.31;51.52
65659;BME280;60181;53.258;6.932;2022-12-18T23:14:11;102102.91;;;11.28;51.38
65659;BME280;60181;53.258;6.932;2022-12-18T23:18:39;102096.77;;;11.25;51.23
65659;BME280;60181;53.258;6.932;2022-12-18T23:23:07;102089.15;;;11.22;51.25
65659;BME280;60181;53.258;6.932;2022-12-18T23:27:35;102082.15;;;11.19;51.27
65659;BME280;60181;53.258;6.932;2022-12-18T23:32:03;102074.19;;;11.17;51.08
65659;BME280;60181;53.258;6.932;2022-12-18T23:36:31;102064.40;;;11.14;50.94
65659;BME280;60181;53.258;6.932;2022-12-18T23:40:59;102056.84;;;11.12;50.95
65659;BME280;60181;53.258;6.932;2022-12-18T23:45:27;102049.31;;;11.10;50.99
65659;BME280;60181;53.258;6.932;2022-12-18T23:49:55;102042.16;;;11.07;50.93
65659;BME280;60181;53.258;6.932;2022-12-18T23:54:23;102037.28;;;11.06;50.94
65659;BME280;60181;53.258;6.932;2022-12-18T23:58:51;102032.62;;;11.05;51.06
